sensor_id;sensor_type;location;lat;lon;timestamp;pressure;altitude;pressure_sealevel;temperature;humidity
61324;BME280;47203;48.428;11.974;2023-04-01T00:01:18;95544.13;;;12.55;47.99
61324;BME280;47203;48.428;11.974;2023-04-01T00:03:24;95540.72;;;12.54;48.28
61324;BME280;47203;48.428;11.974;2023-04-01T00:05:29;95529.22;;;12.50;48.12
61324;BME280;47203;48.428;11.974;2023-04-01T00:07:34;95522.22;;;12.46;48.27
61324;BME280;47203;48.428;11.974;2023-04-01T00:09:39;95528.88;;;12.43;48.22
61324;BME280;47203;48.428;11.974;2023-04-01T00:11:44;95518.00;;;12.45;48.12
61324;BME280;47203;48.428;11.974;2023-04-01T00:13:49;95524.06;;;12.45;48.43
61324;BME280;47203;48.428;11.974;2023-04-01T00:15:54;95526.22;;;12.43;48.25
61324;BME280;47203;48.428;11.974;2023-04-01T00:18:04;95527.31;;;12.42;48.15
61324;BME280;47203;48.428;11.974;2023-04-01T00:20:10;95524.66;;;12.42;48.18
61324;BME280;47203;48.428;11.974;2023-04-01T00:22:16;95524.34;;;12.44;48.52
61324;BME280;47203;48.428;11.974;2023-04-01T00:24:20;95519.56;;;12.46;48.52
61324;BME280;47203;48.428;11.974;2023-04-01T00:26:25;95523.75;;;12.47;48.35
61324;BME280;47203;48.428;11.974;2023-04-01T00:28:30;95520.03;;;12.48;48.54
61324;BME280;47203;48.428;11.974;2023-04-01T00:30:36;95520.81;;;12.48;48.51
61324;BME280;47203;48.428;11.974;2023-04-01T00:32:41;95514.91;;;12.43;48.53
61324;BME280;47203;48.428;11.974;2023-04-01T00:34:50;95516.59;;;12.38;48.57
61324;BME280;47203;48.428;11.974;2023-04-01T00:36:54;95525.28;;;12.39;48.39
61324;BME280;47203;48.428;11.974;2023-04-01T00:38:59;95520.00;;;12.39;48.43
61324;BME280;47203;48.428;11.974;2023-04-01T00:41:05;95510.53;;;12.38;48.30
61324;BME280;47203;48.428;11.974;2023-04-01T00:43:13;95521.69;;;12.35;48.49
61324;BME280;47203;48.428;11.974;2023-04-01T00:45:27;95516.06;;;12.28;48.41
61324;BME280;47203;48.428;11.974;2023-04-01T00:47:32;95516.81;;;12.19;48.73
61324;BME280;47203;48.428;11.974;2023-04-01T00:49:39;95527.84;;;12.21;48.62
61324;BME280;47203;48.428;11.974;2023-04-01T00:51:50;95522.56;;;12.21;48.86
61324;BME280;47203;48.428;11.974;2023-04-01T00:53:58;95525.97;;;12.22;48.79
61324;BME280;47203;48.428;11.974;2023-04-01T00:56:07;95510.59;;;12.15;48.74
61324;BME280;47203;48.428;11.974;2023-04-01T00:58:17;95512.44;;;12.15;48.81
61324;BME280;47203;48.428;11.974;2023-04-01T01:00:23;95515.06;;;12.15;48.56
61324;BME280;47203;48.428;11.974;2023-04-01T01:02:28;95524.84;;;12.14;48.98
61324;BME280;47203;48.428;11.974;2023-04-01T01:04:34;95522.53;;;12.13;48.71
61324;BME280;47203;48.428;11.974;2023-04-01T01:06:48;95523.59;;;12.12;48.79
61324;BME280;47203;48.428;11.974;2023-04-01T01:09:13;95527.78;;;12.13;48.76
61324;BME280;47203;48.428;11.974;2023-04-01T01:11:25;95523.44;;;12.08;48.83
61324;BME280;47203;48.428;11.974;2023-04-01T01:13:45;95524.69;;;12.11;48.98
61324;BME280;47203;48.428;11.974;2023-04-01T01:15:58;95520.50;;;12.10;49.33
61324;BME280;47203;48.428;11.974;2023-04-01T01:18:09;95506.53;;;12.09;49.31
61324;BME280;47203;48.428;11.974;2023-04-01T01:25:32;95504.78;;;12.04;49.36
61324;BME280;47203;48.428;11.974;2023-04-01T01:27:49;95499.34;;;12.01;49.73
61324;BME280;47203;48.428;11.974;2023-04-01T01:30:14;95498.88;;;11.99;49.71
61324;BME280;47203;48.428;11.974;2023-04-01T01:32:38;95500.25;;;11.96;49.66
61324;BME280;47203;48.428;11.974;2023-04-01T01:34:49;95483.44;;;11.92;49.68
61324;BME280;47203;48.428;11.974;2023-04-01T01:37:03;95493.84;;;11.88;49.61
61324;BME280;47203;48.428;11.974;2023-04-01T01:39:12;95490.09;;;11.90;49.85
61324;BME280;47203;48.428;11.974;2023-04-01T01:41:18;95493.22;;;11.92;49.84
61324;BME280;47203;48.428;11.974;2023-04-01T01:43:27;95484.81;;;11.90;49.58
61324;BME280;47203;48.428;11.974;2023-04-01T01:45:36;95480.34;;;11.90;49.74
61324;BME280;47203;48.428;11.974;2023-04-01T01:47:45;95493.53;;;11.90;49.85
61324;BME280;47203;48.428;11.974;2023-04-01T01:49:51;95491.19;;;11.88;49.53
61324;BME280;47203;48.428;11.974;2023-04-01T01:51:58;95485.94;;;11.88;49.73
61324;BME280;47203;48.428;11.974;2023-04-01T01:54:05;95493.03;;;11.88;49.51
61324;BME280;47203;48.428;11.974;2023-04-01T01:56:10;95490.41;;;11.88;49.72
61324;BME280;47203;48.428;11.974;2023-04-01T01:58:20;95491.19;;;11.88;49.61
61324;BME280;47203;48.428;11.974;2023-04-01T02:00:27;95500.50;;;11.86;49.48
61324;BME280;47203;48.428;11.974;2023-04-01T02:02:35;95504.81;;;11.82;49.76
61324;BME280;47203;48.428;11.974;2023-04-01T02:04:43;95487.72;;;11.79;49.67
61324;BME280;47203;48.428;11.974;2023-04-01T02:06:54;95489.59;;;11.79;49.82
61324;BME280;47203;48.428;11.974;2023-04-01T02:09:02;95491.44;;;11.78;49.90
61324;BME280;47203;48.428;11.974;2023-04-01T02:11:12;95492.53;;;11.77;49.69
61324;BME280;47203;48.428;11.974;2023-04-01T02:13:24;95486.16;;;11.78;49.94
61324;BME280;47203;48.428;11.974;2023-04-01T02:15:33;95496.44;;;11.80;49.70
61324;BME280;47203;48.428;11.974;2023-04-01T02:17:43;95487.25;;;11.77;49.81
61324;BME280;47203;48.428;11.974;2023-04-01T02:19:51;95487.06;;;11.74;49.66
61324;BME280;47203;48.428;11.974;2023-04-01T02:22:01;95487.06;;;11.74;50.00
61324;BME280;47203;48.428;11.974;2023-04-01T02:24:10;95487.38;;;11.72;49.90
61324;BME280;47203;48.428;11.974;2023-04-01T02:26:19;95493.25;;;11.69;50.07
61324;BME280;47203;48.428;11.974;2023-04-01T02:28:25;95519.00;;;11.72;49.75
61324;BME280;47203;48.428;11.974;2023-04-01T02:30:33;95495.56;;;11.70;50.01
61324;BME280;47203;48.428;11.974;2023-04-01T02:32:39;95514.81;;;11.71;49.83
61324;BME280;47203;48.428;11.974;2023-04-01T02:34:44;95512.97;;;11.72;50.06
61324;BME280;47203;48.428;11.974;2023-04-01T02:36:50;95513.72;;;11.72;49.75
61324;BME280;47203;48.428;11.974;2023-04-01T02:38:57;95520.88;;;11.72;50.19
61324;BME280;47203;48.428;11.974;2023-04-01T02:41:04;95512.47;;;11.69;49.91
61324;BME280;47203;48.428;11.974;2023-04-01T02:43:13;95516.97;;;11.69;50.09
61324;BME280;47203;48.428;11.974;2023-04-01T02:45:18;95517.16;;;11.73;50.13
61324;BME280;47203;48.428;11.974;2023-04-01T02:47:23;95500.25;;;11.74;50.10
61324;BME280;47203;48.428;11.974;2023-04-01T02:49:28;95517.16;;;11.73;49.76
61324;BME280;47203;48.428;11.974;2023-04-01T02:51:33;95518.53;;;11.70;50.12
61324;BME280;47203;48.428;11.974;2023-04-01T02:53:38;95516.19;;;11.68;50.12
61324;BME280;47203;48.428;11.974;2023-04-01T02:55:42;95521.78;;;11.67;50.23
61324;BME280;47203;48.428;11.974;2023-04-01T02:57:47;95521.56;;;11.63;50.00
61324;BME280;47203;48.428;11.974;2023-04-01T02:59:55;95529.31;;;11.60;50.15
61324;BME280;47203;48.428;11.974;2023-04-01T03:01:59;95530.84;;;11.61;50.25
61324;BME280;47203;48.428;11.974;2023-04-01T03:04:04;95529.00;;;11.61;50.18
61324;BME280;47203;48.428;11.974;2023-04-01T03:06:12;95534.75;;;11.63;50.25
61324;BME280;47203;48.428;11.974;2023-04-01T03:08:17;95533.22;;;11.62;50.04
61324;BME280;47203;48.428;11.974;2023-04-01T03:10:22;95537.22;;;11.60;50.07
61324;BME280;47203;48.428;11.974;2023-04-01T03:12:26;95530.38;;;11.59;50.00
61324;BME280;47203;48.428;11.974;2023-04-01T03:14:31;95538.00;;;11.60;50.14
61324;BME280;47203;48.428;11.974;2023-04-01T03:16:39;95538.75;;;11.61;50.00
61324;BME280;47203;48.428;11.974;2023-04-01T03:18:44;95537.38;;;11.63;50.10
61324;BME280;47203;48.428;11.974;2023-04-01T03:20:52;95532.13;;;11.63;50.09
61324;BME280;47203;48.428;11.974;2023-04-01T03:22:56;95528.72;;;11.63;50.02
61324;BME280;47203;48.428;11.974;2023-04-01T03:25:01;95537.69;;;11.62;50.11
61324;BME280;47203;48.428;11.974;2023-04-01T03:27:07;95540.94;;;11.59;50.04
61324;BME280;47203;48.428;11.974;2023-04-01T03:29:12;95543.09;;;11.57;50.43
61324;BME280;47203;48.428;11.974;2023-04-01T03:31:18;95549.22;;;11.52;50.13
61324;BME280;47203;48.428;11.974;2023-04-01T03:33:31;95538.53;;;11.48;50.38
61324;BME280;47203;48.428;11.974;2023-04-01T03:35:35;95549.22;;;11.52;50.39
61324;BME280;47203;48.428;11.974;2023-04-01T03:37:40;95545.34;;;11.49;50.11
61324;BME280;47203;48.428;11.974;2023-04-01T03:39:45;95547.50;;;11.47;50.42
61324;BME280;47203;48.428;11.974;2023-04-01T03:41:50;95558.34;;;11.46;50.40
61324;BME280;47203;48.428;11.974;2023-04-01T03:43:55;95555.53;;;11.42;50.38
61324;BME280;47203;48.428;11.974;2023-04-01T03:46:00;95554.72;;;11.42;50.35
61324;BME280;47203;48.428;11.974;2023-04-01T03:48:05;95550.84;;;11.39;50.34
61324;BME280;47203;48.428;11.974;2023-04-01T03:50:13;95551.16;;;11.38;50.49
61324;BME280;47203;48.428;11.974;2023-04-01T03:52:17;95563.84;;;11.35;50.65
61324;BME280;47203;48.428;11.974;2023-04-01T03:54:22;95562.25;;;11.34;50.62
61324;BME280;47203;48.428;11.974;2023-04-01T03:56:27;95564.13;;;11.34;50.49
61324;BME280;47203;48.428;11.974;2023-04-01T03:58:32;95547.56;;;11.33;50.47
61324;BME280;47203;48.428;11.974;2023-04-01T04:00:38;95557.59;;;11.31;50.63
61324;BME280;47203;48.428;11.974;2023-04-01T04:02:44;95564.72;;;11.31;50.64
61324;BME280;47203;48.428;11.974;2023-04-01T04:04:55;95565.03;;;11.29;50.60
61324;BME280;47203;48.428;11.974;2023-04-01T04:07:04;95568.72;;;11.28;50.58
61324;BME280;47203;48.428;11.974;2023-04-01T04:09:29;95558.31;;;11.23;50.75
61324;BME280;47203;48.428;11.974;2023-04-01T04:11:35;95562.78;;;11.23;50.68
61324;BME280;47203;48.428;11.974;2023-04-01T04:13:40;95594.69;;;11.21;50.69
61324;BME280;47203;48.428;11.974;2023-04-01T04:15:45;95579.47;;;11.18;50.54
61324;BME280;47203;48.428;11.974;2023-04-01T04:17:50;95576.38;;;11.16;50.62
61324;BME280;47203;48.428;11.974;2023-04-01T04:19:55;95580.84;;;11.15;50.89
61324;BME280;47203;48.428;11.974;2023-04-01T04:22:01;95576.97;;;11.13;50.79
61324;BME280;47203;48.428;11.974;2023-04-01T04:24:09;95572.28;;;11.10;50.69
61324;BME280;47203;48.428;11.974;2023-04-01T04:26:33;95564.38;;;11.10;50.63
61324;BME280;47203;48.428;11.974;2023-04-01T04:28:39;95582.63;;;11.06;50.96
61324;BME280;47203;48.428;11.974;2023-04-01T04:30:44;95582.91;;;11.05;50.62
61324;BME280;47203;48.428;11.974;2023-04-01T04:32:49;95592.97;;;11.03;50.87
61324;BME280;47203;48.428;11.974;2023-04-01T04:34:53;95580.88;;;11.02;50.99
61324;BME280;47203;48.428;11.974;2023-04-01T04:36:58;95579.00;;;11.02;50.90
61324;BME280;47203;48.428;11.974;2023-04-01T04:39:10;95577.19;;;11.03;50.71
61324;BME280;47203;48.428;11.974;2023-04-01T04:41:18;95586.31;;;11.05;50.73
61324;BME280;47203;48.428;11.974;2023-04-01T04:43:25;95584.47;;;11.06;50.92
61324;BME280;47203;48.428;11.974;2023-04-01T04:45:31;95598.53;;;11.01;50.86
61324;BME280;47203;48.428;11.974;2023-04-01T04:47:37;95590.81;;;11.05;50.89
61324;BME280;47203;48.428;11.974;2023-04-01T04:49:42;95592.97;;;11.03;50.75
61324;BME280;47203;48.428;11.974;2023-04-01T04:51:47;95597.44;;;11.02;50.82
61324;BME280;47203;48.428;11.974;2023-04-01T04:53:54;95606.91;;;11.03;50.86
61324;BME280;47203;48.428;11.974;2023-04-01T04:56:17;95599.31;;;11.02;50.71
61324;BME280;47203;48.428;11.974;2023-04-01T04:58:33;95599.31;;;11.02;51.06
61324;BME280;47203;48.428;11.974;2023-04-01T05:00:39;95595.91;;;11.01;51.15
61324;BME280;47203;48.428;11.974;2023-04-01T05:02:52;95593.84;;;10.98;51.04
61324;BME280;47203;48.428;11.974;2023-04-01T05:04:57;95597.56;;;10.97;50.94
61324;BME280;47203;48.428;11.974;2023-04-01T05:07:02;95609.16;;;10.96;51.02
61324;BME280;47203;48.428;11.974;2023-04-01T05:09:08;95599.97;;;10.93;51.41
61324;BME280;47203;48.428;11.974;2023-04-01T05:11:18;95598.75;;;10.91;51.26
61324;BME280;47203;48.428;11.974;2023-04-01T05:13:25;95605.06;;;10.90;51.46
61324;BME280;47203;48.428;11.974;2023-04-01T05:15:30;95591.91;;;10.90;51.26
61324;BME280;47203;48.428;11.974;2023-04-01T05:17:36;95592.88;;;10.94;51.43
61324;BME280;47203;48.428;11.974;2023-04-01T05:19:41;95607.28;;;10.96;51.54
61324;BME280;47203;48.428;11.974;2023-04-01T05:21:46;95608.09;;;10.97;51.47
61324;BME280;47203;48.428;11.974;2023-04-01T05:23:51;95609.63;;;10.98;51.32
61324;BME280;47203;48.428;11.974;2023-04-01T05:25:56;95620.66;;;11.00;51.30
61324;BME280;47203;48.428;11.974;2023-04-01T05:28:04;95599.47;;;11.05;51.49
61324;BME280;47203;48.428;11.974;2023-04-01T05:30:10;95609.16;;;11.10;51.21
61324;BME280;47203;48.428;11.974;2023-04-01T05:32:28;95609.16;;;11.10;51.40
61324;BME280;47203;48.428;11.974;2023-04-01T05:34:33;95608.88;;;11.11;51.54
61324;BME280;47203;48.428;11.974;2023-04-01T05:36:38;95620.34;;;11.15;51.33
61324;BME280;47203;48.428;11.974;2023-04-01T05:38:43;95609.34;;;11.13;51.52
61324;BME280;47203;48.428;11.974;2023-04-01T05:40:58;95609.81;;;11.15;51.65
61324;BME280;47203;48.428;11.974;2023-04-01T05:43:07;95601.66;;;11.17;51.58
61324;BME280;47203;48.428;11.974;2023-04-01T05:45:12;95606.63;;;11.18;51.37
61324;BME280;47203;48.428;11.974;2023-04-01T05:47:50;95611.59;;;11.20;51.54
61324;BME280;47203;48.428;11.974;2023-04-01T05:49:55;95614.41;;;11.24;51.38
61324;BME280;47203;48.428;11.974;2023-04-01T05:52:00;95611.16;;;11.27;51.21
61324;BME280;47203;48.428;11.974;2023-04-01T05:54:08;95613.22;;;11.30;51.66
61324;BME280;47203;48.428;11.974;2023-04-01T05:56:14;95608.91;;;11.34;51.49
61324;BME280;47203;48.428;11.974;2023-04-01T05:58:25;95607.25;;;11.38;51.52
61324;BME280;47203;48.428;11.974;2023-04-01T06:00:30;95618.16;;;11.45;51.11
61324;BME280;47203;48.428;11.974;2023-04-01T06:02:35;95612.31;;;11.48;51.30
61324;BME280;47203;48.428;11.974;2023-04-01T06:04:41;95606.72;;;11.50;51.14
61324;BME280;47203;48.428;11.974;2023-04-01T06:06:47;95615.63;;;11.54;51.37
61324;BME280;47203;48.428;11.974;2023-04-01T06:08:53;95616.59;;;11.58;51.44
61324;BME280;47203;48.428;11.974;2023-04-01T06:11:07;95612.56;;;11.61;50.95
61324;BME280;47203;48.428;11.974;2023-04-01T06:13:32;95617.81;;;11.61;51.29
61324;BME280;47203;48.428;11.974;2023-04-01T06:15:43;95616.16;;;11.65;51.06
61324;BME280;47203;48.428;11.974;2023-04-01T06:18:03;95617.72;;;11.66;50.90
61324;BME280;47203;48.428;11.974;2023-04-01T06:20:20;95615.25;;;11.69;50.99
61324;BME280;47203;48.428;11.974;2023-04-01T06:25:23;95615.63;;;11.77;51.03
61324;BME280;47203;48.428;11.974;2023-04-01T06:27:43;95614.56;;;11.78;50.93
61324;BME280;47203;48.428;11.974;2023-04-01T06:29:57;95617.69;;;11.80;50.74
61324;BME280;47203;48.428;11.974;2023-04-01T06:32:39;95609.19;;;11.83;51.06
61324;BME280;47203;48.428;11.974;2023-04-01T06:35:00;95625.66;;;11.88;50.71
61324;BME280;47203;48.428;11.974;2023-04-01T06:37:31;95626.44;;;11.89;50.93
61324;BME280;47203;48.428;11.974;2023-04-01T06:40:02;95635.41;;;11.88;50.86
61324;BME280;47203;48.428;11.974;2023-04-01T06:42:22;95626.75;;;11.87;50.67
61324;BME280;47203;48.428;11.974;2023-04-01T06:44:43;95627.22;;;11.90;50.86
61324;BME280;47203;48.428;11.974;2023-04-01T06:47:23;95620.56;;;11.92;50.87
61324;BME280;47203;48.428;11.974;2023-04-01T06:49:56;95621.06;;;11.94;50.81
61324;BME280;47203;48.428;11.974;2023-04-01T06:52:26;95619.69;;;11.97;50.36
61324;BME280;47203;48.428;11.974;2023-04-01T06:55:17;95631.03;;;11.97;50.25
61324;BME280;47203;48.428;11.974;2023-04-01T06:57:47;95619.69;;;11.97;50.29
61324;BME280;47203;48.428;11.974;2023-04-01T06:59:55;95624.88;;;12.02;50.28
61324;BME280;47203;48.428;11.974;2023-04-01T07:02:13;95630.13;;;12.02;50.10
61324;BME280;47203;48.428;11.974;2023-04-01T07:04:30;95631.66;;;12.03;50.26
61324;BME280;47203;48.428;11.974;2023-04-01T07:09:14;95626.75;;;12.10;50.22
61324;BME280;47203;48.428;11.974;2023-04-01T07:11:40;95626.00;;;12.10;50.01
61324;BME280;47203;48.428;11.974;2023-04-01T07:14:15;95609.88;;;12.11;50.05
61324;BME280;47203;48.428;11.974;2023-04-01T07:16:27;95628.38;;;12.20;50.22
61324;BME280;47203;48.428;11.974;2023-04-01T07:18:41;95625.50;;;12.30;50.25
61324;BME280;47203;48.428;11.974;2023-04-01T07:20:50;95620.09;;;12.35;49.99
61324;BME280;47203;48.428;11.974;2023-04-01T07:22:59;95624.63;;;12.44;49.79
61324;BME280;47203;48.428;11.974;2023-04-01T07:25:27;95632.13;;;12.50;49.89
61324;BME280;47203;48.428;11.974;2023-04-01T07:28:12;95627.97;;;12.58;49.58
61324;BME280;47203;48.428;11.974;2023-04-01T07:30:23;95626.75;;;12.64;49.38
61324;BME280;47203;48.428;11.974;2023-04-01T07:32:35;95626.44;;;12.66;49.44
61324;BME280;47203;48.428;11.974;2023-04-01T07:35:14;95622.31;;;12.73;49.40
61324;BME280;47203;48.428;11.974;2023-04-01T07:37:28;95616.56;;;12.80;49.04
61324;BME280;47203;48.428;11.974;2023-04-01T07:39:42;95620.63;;;12.86;49.04
61324;BME280;47203;48.428;11.974;2023-04-01T07:42:16;95621.75;;;12.94;48.96
61324;BME280;47203;48.428;11.974;2023-04-01T07:44:34;95618.97;;;12.99;48.95
61324;BME280;47203;48.428;11.974;2023-04-01T07:46:56;95619.91;;;13.03;48.67
61324;BME280;47203;48.428;11.974;2023-04-01T07:49:09;95629.88;;;13.06;48.57
61324;BME280;47203;48.428;11.974;2023-04-01T07:51:21;95617.75;;;13.05;48.86
61324;BME280;47203;48.428;11.974;2023-04-01T07:53:37;95626.59;;;13.01;48.36
61324;BME280;47203;48.428;11.974;2023-04-01T07:55:46;95625.34;;;12.98;48.35
61324;BME280;47203;48.428;11.974;2023-04-01T07:57:59;95627.06;;;13.03;48.25
61324;BME280;47203;48.428;11.974;2023-04-01T08:00:17;95624.28;;;13.08;48.27
61324;BME280;47203;48.428;11.974;2023-04-01T08:02:44;95620.13;;;13.16;48.22
61324;BME280;47203;48.428;11.974;2023-04-01T08:05:01;95619.66;;;13.22;48.22
61324;BME280;47203;48.428;11.974;2023-04-01T08:07:14;95609.59;;;13.33;48.06
61324;BME280;47203;48.428;11.974;2023-04-01T08:09:48;95634.94;;;13.34;47.47
61324;BME280;47203;48.428;11.974;2023-04-01T08:12:22;95619.97;;;13.30;47.74
61324;BME280;47203;48.428;11.974;2023-04-01T08:14:58;95624.19;;;13.31;47.70
61324;BME280;47203;48.428;11.974;2023-04-01T08:17:30;95625.56;;;13.28;47.32
61324;BME280;47203;48.428;11.974;2023-04-01T08:19:43;95624.78;;;13.19;47.80
61324;BME280;47203;48.428;11.974;2023-04-01T08:21:56;95617.63;;;13.19;47.62
61324;BME280;47203;48.428;11.974;2023-04-01T08:24:11;95626.81;;;13.22;47.58
61324;BME280;47203;48.428;11.974;2023-04-01T08:26:30;95626.97;;;13.25;47.35
61324;BME280;47203;48.428;11.974;2023-04-01T08:28:41;95629.31;;;13.27;47.64
61324;BME280;47203;48.428;11.974;2023-04-01T08:30:51;95624.00;;;13.27;47.33
61324;BME280;47203;48.428;11.974;2023-04-01T08:33:00;95620.59;;;13.26;47.21
61324;BME280;47203;48.428;11.974;2023-04-01T08:35:26;95618.09;;;13.30;47.42
61324;BME280;47203;48.428;11.974;2023-04-01T08:37:38;95612.38;;;13.28;47.30
61324;BME280;47203;48.428;11.974;2023-04-01T08:39:51;95619.84;;;13.26;46.96
61324;BME280;47203;48.428;11.974;2023-04-01T08:42:18;95617.19;;;13.26;46.92
61324;BME280;47203;48.428;11.974;2023-04-01T08:45:10;95612.72;;;13.35;47.11
61324;BME280;47203;48.428;11.974;2023-04-01T08:47:42;95603.88;;;13.49;47.08
61324;BME280;47203;48.428;11.974;2023-04-01T08:52:52;95607.00;;;13.68;46.88
61324;BME280;47203;48.428;11.974;2023-04-01T08:55:31;95611.19;;;13.87;46.77
61324;BME280;47203;48.428;11.974;2023-04-01T08:57:57;95605.28;;;13.99;46.22
61324;BME280;47203;48.428;11.974;2023-04-01T09:00:26;95606.19;;;14.03;46.30
61324;BME280;47203;48.428;11.974;2023-04-01T09:03:26;95607.00;;;14.03;45.99
61324;BME280;47203;48.428;11.974;2023-04-01T09:08:24;95613.50;;;14.06;45.83
61324;BME280;47203;48.428;11.974;2023-04-01T09:10:43;95605.25;;;14.07;45.78
61324;BME280;47203;48.428;11.974;2023-04-01T09:13:55;95611.97;;;14.05;45.98
61324;BME280;47203;48.428;11.974;2023-04-01T09:16:20;95606.19;;;14.03;46.05
61324;BME280;47203;48.428;11.974;2023-04-01T09:19:04;95599.66;;;14.00;45.90
61324;BME280;47203;48.428;11.974;2023-04-01T09:24:21;95602.31;;;13.91;46.20
61324;BME280;47203;48.428;11.974;2023-04-01T09:26:42;95607.78;;;14.04;46.34
61324;BME280;47203;48.428;11.974;2023-04-01T09:29:04;95597.47;;;14.20;45.77
61324;BME280;47203;48.428;11.974;2023-04-01T09:31:23;95610.81;;;14.32;45.64
61324;BME280;47203;48.428;11.974;2023-04-01T09:36:44;95581.94;;;14.65;45.55
61324;BME280;47203;48.428;11.974;2023-04-01T09:38:56;95587.38;;;14.78;44.76
61324;BME280;47203;48.428;11.974;2023-04-01T09:41:10;95588.72;;;14.84;44.47
61324;BME280;47203;48.428;11.974;2023-04-01T09:44:00;95597.13;;;14.86;44.61
61324;BME280;47203;48.428;11.974;2023-04-01T09:46:27;95592.47;;;14.83;44.30
61324;BME280;47203;48.428;11.974;2023-04-01T09:49:13;95587.16;;;14.83;44.75
61324;BME280;47203;48.428;11.974;2023-04-01T09:51:27;95568.66;;;14.74;44.62
61324;BME280;47203;48.428;11.974;2023-04-01T09:53:48;95571.34;;;14.65;44.29
61324;BME280;47203;48.428;11.974;2023-04-01T09:56:19;95572.00;;;14.54;44.59
61324;BME280;47203;48.428;11.974;2023-04-01T09:58:48;95582.44;;;14.50;44.62
61324;BME280;47203;48.428;11.974;2023-04-01T10:01:45;95577.03;;;14.38;44.68
61324;BME280;47203;48.428;11.974;2023-04-01T10:04:17;95573.63;;;14.28;44.49
61324;BME280;47203;48.428;11.974;2023-04-01T10:14:30;95564.03;;;14.06;44.87
61324;BME280;47203;48.428;11.974;2023-04-01T10:17:07;95562.94;;;14.07;44.79
61324;BME280;47203;48.428;11.974;2023-04-01T10:19:34;95557.31;;;14.09;45.00
61324;BME280;47203;48.428;11.974;2023-04-01T10:22:08;95565.25;;;14.09;44.97
61324;BME280;47203;48.428;11.974;2023-04-01T10:24:49;95557.19;;;14.05;45.05
61324;BME280;47203;48.428;11.974;2023-04-01T10:30:34;95548.47;;;14.05;44.68
61324;BME280;47203;48.428;11.974;2023-04-01T10:33:21;95549.84;;;14.11;45.13
61324;BME280;47203;48.428;11.974;2023-04-01T10:38:39;95545.94;;;14.26;44.91
61324;BME280;47203;48.428;11.974;2023-04-01T10:44:19;95547.63;;;14.30;44.80
61324;BME280;47203;48.428;11.974;2023-04-01T10:54:45;95555.44;;;14.18;45.13
61324;BME280;47203;48.428;11.974;2023-04-01T10:57:24;95565.56;;;14.16;44.84
61324;BME280;47203;48.428;11.974;2023-04-01T11:00:18;95554.84;;;14.12;45.07
61324;BME280;47203;48.428;11.974;2023-04-01T11:03:17;95556.56;;;14.08;45.67
61324;BME280;47203;48.428;11.974;2023-04-01T11:06:36;95563.25;;;14.06;45.40
61324;BME280;47203;48.428;11.974;2023-04-01T11:09:31;95565.75;;;14.02;45.87
61324;BME280;47203;48.428;11.974;2023-04-01T11:12:11;95559.53;;;13.98;46.22
61324;BME280;47203;48.428;11.974;2023-04-01T11:22:26;95552.84;;;14.01;46.01
61324;BME280;47203;48.428;11.974;2023-04-01T11:24:53;95566.22;;;13.95;46.67
61324;BME280;47203;48.428;11.974;2023-04-01T11:27:25;95572.13;;;13.92;46.61
61324;BME280;47203;48.428;11.974;2023-04-01T11:29:48;95575.41;;;13.89;46.56
61324;BME280;47203;48.428;11.974;2023-04-01T11:32:16;95580.84;;;13.84;46.75
61324;BME280;47203;48.428;11.974;2023-04-01T11:34:41;95596.56;;;13.81;46.48
61324;BME280;47203;48.428;11.974;2023-04-01T11:36:57;95602.81;;;13.76;46.84
61324;BME280;47203;48.428;11.974;2023-04-01T11:39:17;95588.19;;;13.70;47.20
61324;BME280;47203;48.428;11.974;2023-04-01T11:42:12;95579.47;;;13.60;47.11
61324;BME280;47203;48.428;11.974;2023-04-01T11:44:57;95583.22;;;13.59;47.26
61324;BME280;47203;48.428;11.974;2023-04-01T11:47:22;95582.91;;;13.61;47.17
61324;BME280;47203;48.428;11.974;2023-04-01T11:49:40;95593.63;;;13.65;47.11
61324;BME280;47203;48.428;11.974;2023-04-01T11:52:10;95580.56;;;13.68;47.32
61324;BME280;47203;48.428;11.974;2023-04-01T11:54:48;95592.69;;;13.69;47.61
61324;BME280;47203;48.428;11.974;2023-04-01T11:57:09;95613.84;;;13.69;47.69
61324;BME280;47203;48.428;11.974;2023-04-01T11:59:39;95600.16;;;13.58;47.62
61324;BME280;47203;48.428;11.974;2023-04-01T12:01:54;95588.63;;;13.46;47.64
61324;BME280;47203;48.428;11.974;2023-04-01T12:06:41;95611.59;;;13.27;47.99
61324;BME280;47203;48.428;11.974;2023-04-01T12:08:56;95603.81;;;13.22;48.13
61324;BME280;47203;48.428;11.974;2023-04-01T12:11:10;95605.22;;;13.28;48.53
61324;BME280;47203;48.428;11.974;2023-04-01T12:13:30;95617.03;;;13.31;48.64
61324;BME280;47203;48.428;11.974;2023-04-01T12:15:46;95619.09;;;13.34;48.69
61324;BME280;47203;48.428;11.974;2023-04-01T12:17:57;95633.97;;;13.30;48.76
61324;BME280;47203;48.428;11.974;2023-04-01T12:20:14;95632.09;;;13.22;48.69
61324;BME280;47203;48.428;11.974;2023-04-01T12:22:32;95638.00;;;13.19;49.25
61324;BME280;47203;48.428;11.974;2023-04-01T12:24:46;95622.44;;;13.08;49.10
61324;BME280;47203;48.428;11.974;2023-04-01T12:27:02;95629.22;;;13.01;49.39
61324;BME280;47203;48.428;11.974;2023-04-01T12:29:46;95619.13;;;12.94;49.22
61324;BME280;47203;48.428;11.974;2023-04-01T12:32:00;95631.69;;;12.88;49.43
61324;BME280;47203;48.428;11.974;2023-04-01T12:34:42;95629.78;;;12.80;49.79
61324;BME280;47203;48.428;11.974;2023-04-01T12:36:59;95625.09;;;12.77;49.97
61324;BME280;47203;48.428;11.974;2023-04-01T12:39:27;95638.56;;;12.67;50.24
61324;BME280;47203;48.428;11.974;2023-04-01T12:41:40;95635.28;;;12.61;50.63
61324;BME280;47203;48.428;11.974;2023-04-01T12:46:41;95617.88;;;12.51;50.99
61324;BME280;47203;48.428;11.974;2023-04-01T12:49:12;95624.22;;;12.50;50.88
61324;BME280;47203;48.428;11.974;2023-04-01T12:51:39;95627.47;;;12.47;51.37